sensor_id;sensor_type;location;lat;lon;timestamp;temperature;humidity
35325;DHT22;35135;47.510;19.036;2022-08-27T00:02:06;28.60;51.10
35325;DHT22;35135;47.510;19.036;2022-08-27T00:04:33;28.60;51.20
35325;DHT22;35135;47.510;19.036;2022-08-27T00:06:59;28.60;51.20
35325;DHT22;35135;47.510;19.036;2022-08-27T00:09:25;28.60;51.30
35325;DHT22;35135;47.510;19.036;2022-08-27T00:11:51;28.60;51.20
35325;DHT22;35135;47.510;19.036;2022-08-27T00:14:17;28.60;51.20
35325;DHT22;35135;47.510;19.036;2022-08-27T00:16:44;28.60;51.20
35325;DHT22;35135;47.510;19.036;2022-08-27T00:19:10;28.60;51.30
35325;DHT22;35135;47.510;19.036;2022-08-27T00:21:36;28.60;51.30
35325;DHT22;35135;47.510;19.036;2022-08-27T00:24:03;28.60;51.10
35325;DHT22;35135;47.510;19.036;2022-08-27T00:26:28;28.60;51.20
35325;DHT22;35135;47.510;19.036;2022-08-27T00:28:54;28.60;51.20
35325;DHT22;35135;47.510;19.036;2022-08-27T00:31:20;28.60;51.20
35325;DHT22;35135;47.510;19.036;2022-08-27T00:33:46;28.60;51.20
35325;DHT22;35135;47.510;19.036;2022-08-27T00:36:13;28.60;51.30
35325;DHT22;35135;47.510;19.036;2022-08-27T00:38:39;28.60;51.30
35325;DHT22;35135;47.510;19.036;2022-08-27T00:41:06;28.50;51.20
35325;DHT22;35135;47.510;19.036;2022-08-27T00:43:48;28.50;51.30
35325;DHT22;35135;47.510;19.036;2022-08-27T00:46:22;28.50;51.30
35325;DHT22;35135;47.510;19.036;2022-08-27T00:48:49;28.50;51.30
35325;DHT22;35135;47.510;19.036;2022-08-27T00:51:17;28.50;51.30
35325;DHT22;35135;47.510;19.036;2022-08-27T00:53:45;28.50;51.30
35325;DHT22;35135;47.510;19.036;2022-08-27T00:56:16;28.50;51.20
35325;DHT22;35135;47.510;19.036;2022-08-27T00:58:44;28.40;51.10
35325;DHT22;35135;47.510;19.036;2022-08-27T01:01:12;28.40;51.40
35325;DHT22;35135;47.510;19.036;2022-08-27T01:03:39;28.30;51.50
35325;DHT22;35135;47.510;19.036;2022-08-27T01:06:05;28.10;52.00
35325;DHT22;35135;47.510;19.036;2022-08-27T01:08:35;28.00;52.00
35325;DHT22;35135;47.510;19.036;2022-08-27T01:11:02;28.10;52.20
35325;DHT22;35135;47.510;19.036;2022-08-27T01:13:29;28.10;52.20
35325;DHT22;35135;47.510;19.036;2022-08-27T01:15:57;28.10;52.30
35325;DHT22;35135;47.510;19.036;2022-08-27T01:18:24;28.10;52.30
35325;DHT22;35135;47.510;19.036;2022-08-27T01:20:54;28.10;52.20
35325;DHT22;35135;47.510;19.036;2022-08-27T01:23:26;28.20;52.20
35325;DHT22;35135;47.510;19.036;2022-08-27T01:25:57;28.20;52.10
35325;DHT22;35135;47.510;19.036;2022-08-27T01:28:24;28.20;51.50
35325;DHT22;35135;47.510;19.036;2022-08-27T01:30:50;28.20;51.80
35325;DHT22;35135;47.510;19.036;2022-08-27T01:33:17;28.10;51.90
35325;DHT22;35135;47.510;19.036;2022-08-27T01:35:45;28.20;51.60
35325;DHT22;35135;47.510;19.036;2022-08-27T01:38:10;28.10;51.50
35325;DHT22;35135;47.510;19.036;2022-08-27T01:40:37;28.20;51.50
35325;DHT22;35135;47.510;19.036;2022-08-27T01:43:04;28.10;51.20
35325;DHT22;35135;47.510;19.036;2022-08-27T01:45:32;28.10;51.30
35325;DHT22;35135;47.510;19.036;2022-08-27T01:47:58;28.20;51.30
35325;DHT22;35135;47.510;19.036;2022-08-27T01:50:25;28.20;51.20
35325;DHT22;35135;47.510;19.036;2022-08-27T01:52:51;28.20;51.20
35325;DHT22;35135;47.510;19.036;2022-08-27T01:55:19;28.20;51.20
35325;DHT22;35135;47.510;19.036;2022-08-27T01:57:45;28.20;51.10
35325;DHT22;35135;47.510;19.036;2022-08-27T02:00:16;28.20;50.80
35325;DHT22;35135;47.510;19.036;2022-08-27T02:02:44;28.20;50.80
35325;DHT22;35135;47.510;19.036;2022-08-27T02:05:12;28.20;50.80
35325;DHT22;35135;47.510;19.036;2022-08-27T02:07:39;28.20;50.90
35325;DHT22;35135;47.510;19.036;2022-08-27T02:10:06;28.20;51.00
35325;DHT22;35135;47.510;19.036;2022-08-27T02:12:32;28.20;51.10
35325;DHT22;35135;47.510;19.036;2022-08-27T02:14:57;28.20;51.10
35325;DHT22;35135;47.510;19.036;2022-08-27T02:17:23;28.20;51.00
35325;DHT22;35135;47.510;19.036;2022-08-27T02:19:49;28.20;50.70
35325;DHT22;35135;47.510;19.036;2022-08-27T02:22:17;28.20;50.80
35325;DHT22;35135;47.510;19.036;2022-08-27T02:24:43;28.20;50.80
35325;DHT22;35135;47.510;19.036;2022-08-27T02:27:10;28.10;50.80
35325;DHT22;35135;47.510;19.036;2022-08-27T02:29:35;28.20;50.90
35325;DHT22;35135;47.510;19.036;2022-08-27T02:32:01;28.10;50.90
35325;DHT22;35135;47.510;19.036;2022-08-27T02:34:29;28.20;51.10
35325;DHT22;35135;47.510;19.036;2022-08-27T02:36:56;28.20;51.10
35325;DHT22;35135;47.510;19.036;2022-08-27T02:39:21;28.10;50.90
35325;DHT22;35135;47.510;19.036;2022-08-27T02:41:47;28.20;50.90
35325;DHT22;35135;47.510;19.036;2022-08-27T02:44:13;28.10;50.90
35325;DHT22;35135;47.510;19.036;2022-08-27T02:46:39;28.10;50.90
35325;DHT22;35135;47.510;19.036;2022-08-27T02:49:06;28.10;51.00
35325;DHT22;35135;47.510;19.036;2022-08-27T02:51:32;28.10;51.00
35325;DHT22;35135;47.510;19.036;2022-08-27T02:53:58;28.10;51.00
35325;DHT22;35135;47.510;19.036;2022-08-27T02:56:24;28.10;50.90
35325;DHT22;35135;47.510;19.036;2022-08-27T02:58:50;28.10;50.80
35325;DHT22;35135;47.510;19.036;2022-08-27T03:01:15;28.10;50.80
35325;DHT22;35135;47.510;19.036;2022-08-27T03:03:41;28.10;50.80
35325;DHT22;35135;47.510;19.036;2022-08-27T03:06:07;28.10;50.70
35325;DHT22;35135;47.510;19.036;2022-08-27T03:08:33;28.10;50.70
35325;DHT22;35135;47.510;19.036;2022-08-27T03:10:58;28.10;50.60
35325;DHT22;35135;47.510;19.036;2022-08-27T03:13:25;28.10;50.70
35325;DHT22;35135;47.510;19.036;2022-08-27T03:15:52;28.10;50.80
35325;DHT22;35135;47.510;19.036;2022-08-27T03:18:19;28.10;50.80
35325;DHT22;35135;47.510;19.036;2022-08-27T03:20:47;28.10;50.70
35325;DHT22;35135;47.510;19.036;2022-08-27T03:23:14;28.10;50.60
35325;DHT22;35135;47.510;19.036;2022-08-27T03:25:42;28.10;50.50
35325;DHT22;35135;47.510;19.036;2022-08-27T03:28:08;28.10;50.60
35325;DHT22;35135;47.510;19.036;2022-08-27T03:30:33;28.10;50.60
35325;DHT22;35135;47.510;19.036;2022-08-27T03:32:59;28.10;50.70
35325;DHT22;35135;47.510;19.036;2022-08-27T03:35:25;28.10;50.70
35325;DHT22;35135;47.510;19.036;2022-08-27T03:37:52;28.00;50.70
35325;DHT22;35135;47.510;19.036;2022-08-27T03:40:19;28.00;50.70
35325;DHT22;35135;47.510;19.036;2022-08-27T03:42:45;28.10;50.80
35325;DHT22;35135;47.510;19.036;2022-08-27T03:45:11;28.00;50.70
35325;DHT22;35135;47.510;19.036;2022-08-27T03:47:37;28.00;50.60
35325;DHT22;35135;47.510;19.036;2022-08-27T03:50:04;28.00;50.40
35325;DHT22;35135;47.510;19.036;2022-08-27T03:52:31;28.00;50.30
35325;DHT22;35135;47.510;19.036;2022-08-27T03:54:57;28.00;50.30
35325;DHT22;35135;47.510;19.036;2022-08-27T03:57:23;28.00;50.30
35325;DHT22;35135;47.510;19.036;2022-08-27T03:59:49;28.00;50.30
35325;DHT22;35135;47.510;19.036;2022-08-27T04:02:14;28.00;50.30
35325;DHT22;35135;47.510;19.036;2022-08-27T04:04:41;28.00;50.20
35325;DHT22;35135;47.510;19.036;2022-08-27T04:07:07;28.00;50.30
35325;DHT22;35135;47.510;19.036;2022-08-27T04:09:34;28.00;50.30
35325;DHT22;35135;47.510;19.036;2022-08-27T04:12:00;28.00;50.20
35325;DHT22;35135;47.510;19.036;2022-08-27T04:14:26;28.00;50.20
35325;DHT22;35135;47.510;19.036;2022-08-27T04:16:56;28.00;50.20
35325;DHT22;35135;47.510;19.036;2022-08-27T04:19:24;28.00;50.20
35325;DHT22;35135;47.510;19.036;2022-08-27T04:21:52;28.00;50.10
35325;DHT22;35135;47.510;19.036;2022-08-27T04:24:17;28.00;50.10
35325;DHT22;35135;47.510;19.036;2022-08-27T04:26:43;28.00;50.70
35325;DHT22;35135;47.510;19.036;2022-08-27T04:29:11;28.00;50.20
35325;DHT22;35135;47.510;19.036;2022-08-27T04:31:37;28.00;50.20
35325;DHT22;35135;47.510;19.036;2022-08-27T04:34:03;28.00;50.20
35325;DHT22;35135;47.510;19.036;2022-08-27T04:36:32;27.90;50.20
35325;DHT22;35135;47.510;19.036;2022-08-27T04:38:58;28.00;50.30
35325;DHT22;35135;47.510;19.036;2022-08-27T04:41:23;28.00;50.30
35325;DHT22;35135;47.510;19.036;2022-08-27T04:43:57;28.00;50.30
35325;DHT22;35135;47.510;19.036;2022-08-27T04:46:25;27.90;50.30
35325;DHT22;35135;47.510;19.036;2022-08-27T04:48:52;28.00;50.30
35325;DHT22;35135;47.510;19.036;2022-08-27T04:51:19;27.90;50.20
35325;DHT22;35135;47.510;19.036;2022-08-27T04:53:45;27.90;49.90
35325;DHT22;35135;47.510;19.036;2022-08-27T04:56:11;27.90;50.40
35325;DHT22;35135;47.510;19.036;2022-08-27T04:58:37;27.80;50.70
35325;DHT22;35135;47.510;19.036;2022-08-27T05:01:03;27.70;50.90
35325;DHT22;35135;47.510;19.036;2022-08-27T05:03:29;27.70;51.10
35325;DHT22;35135;47.510;19.036;2022-08-27T05:05:58;27.60;51.20
35325;DHT22;35135;47.510;19.036;2022-08-27T05:08:24;27.60;51.30
35325;DHT22;35135;47.510;19.036;2022-08-27T05:10:50;27.60;51.20
35325;DHT22;35135;47.510;19.036;2022-08-27T05:13:16;27.70;51.40
35325;DHT22;35135;47.510;19.036;2022-08-27T05:15:43;27.70;51.50
35325;DHT22;35135;47.510;19.036;2022-08-27T05:18:09;27.80;51.40
35325;DHT22;35135;47.510;19.036;2022-08-27T05:20:40;27.80;51.20
35325;DHT22;35135;47.510;19.036;2022-08-27T05:23:06;27.90;51.10
35325;DHT22;35135;47.510;19.036;2022-08-27T05:25:36;27.90;51.10
35325;DHT22;35135;47.510;19.036;2022-08-27T05:28:02;27.90;51.20
35325;DHT22;35135;47.510;19.036;2022-08-27T05:30:28;28.00;51.00
35325;DHT22;35135;47.510;19.036;2022-08-27T05:32:55;28.00;50.90
35325;DHT22;35135;47.510;19.036;2022-08-27T05:35:20;28.00;50.80
35325;DHT22;35135;47.510;19.036;2022-08-27T05:37:47;28.00;50.70
35325;DHT22;35135;47.510;19.036;2022-08-27T05:40:13;28.00;50.70
35325;DHT22;35135;47.510;19.036;2022-08-27T05:42:39;28.10;50.90
35325;DHT22;35135;47.510;19.036;2022-08-27T05:45:07;28.10;50.30
35325;DHT22;35135;47.510;19.036;2022-08-27T05:47:34;28.10;50.80
35325;DHT22;35135;47.510;19.036;2022-08-27T05:49:59;28.20;50.90
35325;DHT22;35135;47.510;19.036;2022-08-27T05:52:25;28.30;50.40
35325;DHT22;35135;47.510;19.036;2022-08-27T05:54:51;28.30;50.30
35325;DHT22;35135;47.510;19.036;2022-08-27T05:57:17;28.30;50.10
35325;DHT22;35135;47.510;19.036;2022-08-27T05:59:43;28.40;49.90
35325;DHT22;35135;47.510;19.036;2022-08-27T06:02:27;28.40;49.80
35325;DHT22;35135;47.510;19.036;2022-08-27T06:04:53;28.50;49.60
35325;DHT22;35135;47.510;19.036;2022-08-27T06:07:19;28.60;49.80
35325;DHT22;35135;47.510;19.036;2022-08-27T06:09:45;28.60;49.50
35325;DHT22;35135;47.510;19.036;2022-08-27T06:12:10;28.60;49.20
35325;DHT22;35135;47.510;19.036;2022-08-27T06:14:36;28.70;49.50
35325;DHT22;35135;47.510;19.036;2022-08-27T06:17:04;28.70;49.30
35325;DHT22;35135;47.510;19.036;2022-08-27T06:19:30;28.80;49.50
35325;DHT22;35135;47.510;19.036;2022-08-27T06:21:59;28.80;49.20
35325;DHT22;35135;47.510;19.036;2022-08-27T06:24:25;28.80;48.80
35325;DHT22;35135;47.510;19.036;2022-08-27T06:26:50;28.80;49.00
35325;DHT22;35135;47.510;19.036;2022-08-27T06:29:16;28.90;48.90
35325;DHT22;35135;47.510;19.036;2022-08-27T06:31:43;28.90;48.80
35325;DHT22;35135;47.510;19.036;2022-08-27T06:34:09;28.90;49.00
35325;DHT22;35135;47.510;19.036;2022-08-27T06:36:37;29.00;48.50
35325;DHT22;35135;47.510;19.036;2022-08-27T06:39:04;29.00;48.60
35325;DHT22;35135;47.510;19.036;2022-08-27T06:41:31;29.00;48.40
35325;DHT22;35135;47.510;19.036;2022-08-27T06:43:57;28.90;48.70
35325;DHT22;35135;47.510;19.036;2022-08-27T06:46:25;28.90;48.80
35325;DHT22;35135;47.510;19.036;2022-08-27T06:48:52;28.90;48.60
35325;DHT22;35135;47.510;19.036;2022-08-27T06:51:18;28.80;48.90
35325;DHT22;35135;47.510;19.036;2022-08-27T06:53:45;28.80;48.90
35325;DHT22;35135;47.510;19.036;2022-08-27T06:56:15;28.80;48.90
35325;DHT22;35135;47.510;19.036;2022-08-27T06:58:42;28.80;48.80
35325;DHT22;35135;47.510;19.036;2022-08-27T07:01:16;28.80;49.20
35325;DHT22;35135;47.510;19.036;2022-08-27T07:03:43;28.80;48.90
35325;DHT22;35135;47.510;19.036;2022-08-27T07:06:10;28.70;48.70
35325;DHT22;35135;47.510;19.036;2022-08-27T07:08:36;28.70;48.90
35325;DHT22;35135;47.510;19.036;2022-08-27T07:11:02;28.70;49.10
35325;DHT22;35135;47.510;19.036;2022-08-27T07:13:28;28.70;49.40
35325;DHT22;35135;47.510;19.036;2022-08-27T07:15:54;28.80;49.20
35325;DHT22;35135;47.510;19.036;2022-08-27T07:18:20;28.80;49.60
35325;DHT22;35135;47.510;19.036;2022-08-27T07:20:47;28.80;49.00
35325;DHT22;35135;47.510;19.036;2022-08-27T07:23:12;28.80;49.00
35325;DHT22;35135;47.510;19.036;2022-08-27T07:25:41;28.90;49.40
35325;DHT22;35135;47.510;19.036;2022-08-27T07:28:08;28.90;49.30
35325;DHT22;35135;47.510;19.036;2022-08-27T07:30:34;28.90;49.30
35325;DHT22;35135;47.510;19.036;2022-08-27T07:33:03;29.00;48.90
35325;DHT22;35135;47.510;19.036;2022-08-27T07:35:28;29.00;48.90
35325;DHT22;35135;47.510;19.036;2022-08-27T07:37:55;29.00;48.50
35325;DHT22;35135;47.510;19.036;2022-08-27T07:40:21;29.00;48.30
35325;DHT22;35135;47.510;19.036;2022-08-27T07:42:47;29.00;48.90
35325;DHT22;35135;47.510;19.036;2022-08-27T07:45:31;29.00;48.80
35325;DHT22;35135;47.510;19.036;2022-08-27T07:47:57;29.00;48.20
35325;DHT22;35135;47.510;19.036;2022-08-27T07:50:22;29.00;48.60
35325;DHT22;35135;47.510;19.036;2022-08-27T07:52:49;29.00;48.70
35325;DHT22;35135;47.510;19.036;2022-08-27T07:55:15;29.10;48.70
35325;DHT22;35135;47.510;19.036;2022-08-27T07:57:41;29.10;48.80
35325;DHT22;35135;47.510;19.036;2022-08-27T08:00:07;29.10;48.80
35325;DHT22;35135;47.510;19.036;2022-08-27T08:02:37;29.20;49.00
35325;DHT22;35135;47.510;19.036;2022-08-27T08:05:03;29.20;49.00
35325;DHT22;35135;47.510;19.036;2022-08-27T08:07:31;29.20;49.30
35325;DHT22;35135;47.510;19.036;2022-08-27T08:09:58;29.20;48.60
35325;DHT22;35135;47.510;19.036;2022-08-27T08:12:24;29.20;48.10
35325;DHT22;35135;47.510;19.036;2022-08-27T08:14:50;29.20;48.30
35325;DHT22;35135;47.510;19.036;2022-08-27T08:17:20;29.30;48.30
35325;DHT22;35135;47.510;19.036;2022-08-27T08:19:47;29.30;47.70
35325;DHT22;35135;47.510;19.036;2022-08-27T08:22:15;29.30;47.90
35325;DHT22;35135;47.510;19.036;2022-08-27T08:24:40;29.30;47.90
35325;DHT22;35135;47.510;19.036;2022-08-27T08:27:06;29.30;47.90
35325;DHT22;35135;47.510;19.036;2022-08-27T08:29:31;29.30;47.90
35325;DHT22;35135;47.510;19.036;2022-08-27T08:31:57;29.30;47.90
35325;DHT22;35135;47.510;19.036;2022-08-27T08:34:24;29.30;47.80
35325;DHT22;35135;47.510;19.036;2022-08-27T08:36:50;29.30;47.00
35325;DHT22;35135;47.510;19.036;2022-08-27T08:39:17;29.20;47.10
35325;DHT22;35135;47.510;19.036;2022-08-27T08:41:47;29.20;47.20
35325;DHT22;35135;47.510;19.036;2022-08-27T08:44:31;29.20;47.10
35325;DHT22;35135;47.510;19.036;2022-08-27T08:47:44;29.20;46.90
35325;DHT22;35135;47.510;19.036;2022-08-27T08:49:55;29.10;46.20
35325;DHT22;35135;47.510;19.036;2022-08-27T08:53:10;29.10;46.30
35325;DHT22;35135;47.510;19.036;2022-08-27T08:57:41;29.10;45.00
35325;DHT22;35135;47.510;19.036;2022-08-27T09:00:11;29.10;45.40
35325;DHT22;35135;47.510;19.036;2022-08-27T09:02:38;29.10;45.50
35325;DHT22;35135;47.510;19.036;2022-08-27T09:05:04;29.10;45.80
35325;DHT22;35135;47.510;19.036;2022-08-27T09:07:33;29.10;44.30
35325;DHT22;35135;47.510;19.036;2022-08-27T09:12:28;29.10;44.30
35325;DHT22;35135;47.510;19.036;2022-08-27T09:17:23;29.10;45.00
35325;DHT22;35135;47.510;19.036;2022-08-27T09:19:49;29.20;44.70
35325;DHT22;35135;47.510;19.036;2022-08-27T09:25:31;29.20;44.00
35325;DHT22;35135;47.510;19.036;2022-08-27T09:27:38;29.20;44.00
35325;DHT22;35135;47.510;19.036;2022-08-27T09:30:11;29.20;42.90
35325;DHT22;35135;47.510;19.036;2022-08-27T09:32:37;29.20;43.10
35325;DHT22;35135;47.510;19.036;2022-08-27T09:35:04;29.30;43.70
35325;DHT22;35135;47.510;19.036;2022-08-27T09:37:44;29.30;43.50
35325;DHT22;35135;47.510;19.036;2022-08-27T09:40:26;29.30;43.70
35325;DHT22;35135;47.510;19.036;2022-08-27T09:43:03;29.20;43.20
35325;DHT22;35135;47.510;19.036;2022-08-27T09:45:32;29.20;43.40
35325;DHT22;35135;47.510;19.036;2022-08-27T09:48:06;29.30;43.70
35325;DHT22;35135;47.510;19.036;2022-08-27T09:50:37;29.30;43.10
35325;DHT22;35135;47.510;19.036;2022-08-27T09:53:23;29.30;43.00
35325;DHT22;35135;47.510;19.036;2022-08-27T09:56:07;29.30;43.20
35325;DHT22;35135;47.510;19.036;2022-08-27T10:01:30;29.30;42.60
35325;DHT22;35135;47.510;19.036;2022-08-27T10:04:02;29.30;42.90
35325;DHT22;35135;47.510;19.036;2022-08-27T10:06:29;29.30;42.80
35325;DHT22;35135;47.510;19.036;2022-08-27T10:09:09;29.30;42.20
35325;DHT22;35135;47.510;19.036;2022-08-27T10:11:43;29.30;40.40
35325;DHT22;35135;47.510;19.036;2022-08-27T10:14:17;29.30;40.60
35325;DHT22;35135;47.510;19.036;2022-08-27T10:16:59;29.30;40.50
35325;DHT22;35135;47.510;19.036;2022-08-27T10:19:34;29.30;40.90
35325;DHT22;35135;47.510;19.036;2022-08-27T10:24:53;29.30;41.00
35325;DHT22;35135;47.510;19.036;2022-08-27T10:30:07;29.30;41.30
35325;DHT22;35135;47.510;19.036;2022-08-27T10:35:59;29.30;41.10
35325;DHT22;35135;47.510;19.036;2022-08-27T10:38:22;29.30;39.90
35325;DHT22;35135;47.510;19.036;2022-08-27T10:41:10;29.30;40.10
35325;DHT22;35135;47.510;19.036;2022-08-27T10:43:48;29.40;40.40
35325;DHT22;35135;47.510;19.036;2022-08-27T10:48:50;29.30;41.10
35325;DHT22;35135;47.510;19.036;2022-08-27T10:53:47;29.40;41.50
35325;DHT22;35135;47.510;19.036;2022-08-27T10:56:20;29.30;41.90
35325;DHT22;35135;47.510;19.036;2022-08-27T11:03:43;29.30;41.70
35325;DHT22;35135;47.510;19.036;2022-08-27T11:06:22;29.30;41.30
35325;DHT22;35135;47.510;19.036;2022-08-27T11:08:51;29.30;41.30
35325;DHT22;35135;47.510;19.036;2022-08-27T11:11:39;29.40;41.10
35325;DHT22;35135;47.510;19.036;2022-08-27T11:14:08;29.40;41.80
35325;DHT22;35135;47.510;19.036;2022-08-27T11:16:45;29.30;42.00
35325;DHT22;35135;47.510;19.036;2022-08-27T11:19:20;29.30;41.70
35325;DHT22;35135;47.510;19.036;2022-08-27T11:24:35;29.40;42.30
35325;DHT22;35135;47.510;19.036;2022-08-27T11:27:04;29.30;42.40
35325;DHT22;35135;47.510;19.036;2022-08-27T11:29:35;29.40;42.40
35325;DHT22;35135;47.510;19.036;2022-08-27T11:42:34;29.40;41.30
35325;DHT22;35135;47.510;19.036;2022-08-27T11:45:06;29.40;41.80
35325;DHT22;35135;47.510;19.036;2022-08-27T11:47:35;29.40;41.30
35325;DHT22;35135;47.510;19.036;2022-08-27T11:50:03;29.40;40.70
35325;DHT22;35135;47.510;19.036;2022-08-27T11:52:36;29.40;40.70
35325;DHT22;35135;47.510;19.036;2022-08-27T11:57:38;29.40;41.30
35325;DHT22;35135;47.510;19.036;2022-08-27T12:00:18;29.50;41.20
35325;DHT22;35135;47.510;19.036;2022-08-27T12:02:54;29.40;41.60
35325;DHT22;35135;47.510;19.036;2022-08-27T12:05:23;29.40;41.30
35325;DHT22;35135;47.510;19.036;2022-08-27T12:07:50;29.40;41.40
35325;DHT22;35135;47.510;19.036;2022-08-27T12:10:19;29.50;41.50
35325;DHT22;35135;47.510;19.036;2022-08-27T12:13:08;29.50;40.80
35325;DHT22;35135;47.510;19.036;2022-08-27T12:19:02;29.50;41.70
35325;DHT22;35135;47.510;19.036;2022-08-27T12:24:17;29.50;41.20
35325;DHT22;35135;47.510;19.036;2022-08-27T12:26:55;29.50;40.80
35325;DHT22;35135;47.510;19.036;2022-08-27T12:31:55;29.50;40.30
35325;DHT22;35135;47.510;19.036;2022-08-27T12:34:24;29.50;40.70
35325;DHT22;35135;47.510;19.036;2022-08-27T12:36:51;29.60;41.00
35325;DHT22;35135;47.510;19.036;2022-08-27T12:39:19;29.60;41.30
35325;DHT22;35135;47.510;19.036;2022-08-27T12:41:48;29.60;41.50
35325;DHT22;35135;47.510;19.036;2022-08-27T12:44:21;29.50;41.70
35325;DHT22;35135;47.510;19.036;2022-08-27T12:46:48;29.50;41.60
35325;DHT22;35135;47.510;19.036;2022-08-27T12:49:20;29.40;41.80
35325;DHT22;35135;47.510;19.036;2022-08-27T12:51:47;29.40;41.90
35325;DHT22;35135;47.510;19.036;2022-08-27T12:59:58;29.40;41.80
35325;DHT22;35135;47.510;19.036;2022-08-27T13:04:55;29.40;42.00
35325;DHT22;35135;47.510;19.036;2022-08-27T13:07:25;29.40;41.70
35325;DHT22;35135;47.510;19.036;2022-08-27T13:09:51;29.40;41.90
35325;DHT22;35135;47.510;19.036;2022-08-27T13:12:17;29.40;41.10
35325;DHT22;35135;47.510;19.036;2022-08-27T13:14:44;29.50;41.50
35325;DHT22;35135;47.510;19.036;2022-08-27T13:17:10;29.50;41.60
35325;DHT22;35135;47.510;19.036;2022-08-27T13:19:49;29.50;41.40
35325;DHT22;35135;47.510;19.036;2022-08-27T13:22:21;29.50;41.60
35325;DHT22;35135;47.510;19.036;2022-08-27T13:24:49;29.40;41.50
35325;DHT22;35135;47.510;19.036;2022-08-27T13:27:15;29.40;41.90
35325;DHT22;35135;47.510;19.036;2022-08-27T13:29:40;29.50;42.10
35325;DHT22;35135;47.510;19.036;2022-08-27T13:32:06;29.50;42.10
35325;DHT22;35135;47.510;19.036;2022-08-27T13:34:33;29.50;42.20
35325;DHT22;35135;47.510;19.036;2022-08-27T13:37:01;29.50;41.90
35325;DHT22;35135;47.510;19.036;2022-08-27T13:39:28;29.50;41.60
35325;DHT22;35135;47.510;19.036;2022-08-27T13:41:56;29.40;42.00
35325;DHT22;35135;47.510;19.036;2022-08-27T13:44:24;29.50;42.30
35325;DHT22;35135;47.510;19.036;2022-08-27T13:46:52;29.50;42.30
35325;DHT22;35135;47.510;19.036;2022-08-27T13:49:23;29.50;42.10
35325;DHT22;35135;47.510;19.036;2022-08-27T13:51:56;29.40;42.00
35325;DHT22;35135;47.510;19.036;2022-08-27T13:54:23;29.50;42.40
35325;DHT22;35135;47.510;19.036;2022-08-27T14:01:56;29.50;42.30
35325;DHT22;35135;47.510;19.036;2022-08-27T14:04:23;29.50;42.40
35325;DHT22;35135;47.510;19.036;2022-08-27T14:06:49;29.50;41.90
35325;DHT22;35135;47.510;19.036;2022-08-27T14:09:21;29.50;42.00
35325;DHT22;35135;47.510;19.036;2022-08-27T14:11:48;29.50;41.70
35325;DHT22;35135;47.510;19.036;2022-08-27T14:14:22;29.50;41.80
35325;DHT22;35135;47.510;19.036;2022-08-27T14:16:55;29.50;42.40
35325;DHT22;35135;47.510;19.036;2022-08-27T14:19:25;29.50;42.10
35325;DHT22;35135;47.510;19.036;2022-08-27T14:21:52;29.50;41.80
35325;DHT22;35135;47.510;19.036;2022-08-27T14:24:18;29.40;42.10
35325;DHT22;35135;47.510;19.036;2022-08-27T14:26:47;29.50;42.80
35325;DHT22;35135;47.510;19.036;2022-08-27T14:29:15;29.50;42.30
35325;DHT22;35135;47.510;19.036;2022-08-27T14:31:42;29.50;42.30
35325;DHT22;35135;47.510;19.036;2022-08-27T14:34:07;29.50;42.20
35325;DHT22;35135;47.510;19.036;2022-08-27T14:36:36;29.50;42.30
35325;DHT22;35135;47.510;19.036;2022-08-27T14:39:15;29.60;42.10
35325;DHT22;35135;47.510;19.036;2022-08-27T14:41:43;29.60;42.40
35325;DHT22;35135;47.510;19.036;2022-08-27T14:44:10;29.60;42.20
35325;DHT22;35135;47.510;19.036;2022-08-27T14:46:38;29.60;42.30
35325;DHT22;35135;47.510;19.036;2022-08-27T14:49:10;29.60;42.00
35325;DHT22;35135;47.510;19.036;2022-08-27T14:51:40;29.60;41.50
35325;DHT22;35135;47.510;19.036;2022-08-27T14:54:08;29.70;41.30
35325;DHT22;35135;47.510;19.036;2022-08-27T14:56:42;29.70;40.80
35325;DHT22;35135;47.510;19.036;2022-08-27T14:59:11;29.70;40.80
35325;DHT22;35135;47.510;19.036;2022-08-27T15:01:38;29.80;41.70
35325;DHT22;35135;47.510;19.036;2022-08-27T15:04:05;29.80;41.10
35325;DHT22;35135;47.510;19.036;2022-08-27T15:06:31;29.80;41.10
35325;DHT22;35135;47.510;19.036;2022-08-27T15:08:58;29.80;41.50
35325;DHT22;35135;47.510;19.036;2022-08-27T15:11:25;29.80;41.50
35325;DHT22;35135;47.510;19.036;2022-08-27T15:13:54;29.80;41.40
35325;DHT22;35135;47.510;19.036;2022-08-27T15:18:55;29.90;41.60
35325;DHT22;35135;47.510;19.036;2022-08-27T15:21:30;29.90;41.80
35325;DHT22;35135;47.510;19.036;2022-08-27T15:23:57;29.90;41.60
35325;DHT22;35135;47.510;19.036;2022-08-27T15:26:23;29.80;41.60
35325;DHT22;35135;47.510;19.036;2022-08-27T15:28:49;29.80;41.70
35325;DHT22;35135;47.510;19.036;2022-08-27T15:31:18;29.80;42.00
35325;DHT22;35135;47.510;19.036;2022-08-27T15:33:46;29.80;42.10
35325;DHT22;35135;47.510;19.036;2022-08-27T15:36:12;29.80;41.50
35325;DHT22;35135;47.510;19.036;2022-08-27T15:38:38;29.80;41.10
35325;DHT22;35135;47.510;19.036;2022-08-27T15:41:06;29.80;40.80
35325;DHT22;35135;47.510;19.036;2022-08-27T15:43:39;29.90;40.60
35325;DHT22;35135;47.510;19.036;2022-08-27T15:46:05;29.90;40.70
35325;DHT22;35135;47.510;19.036;2022-08-27T15:48:31;29.90;40.70
35325;DHT22;35135;47.510;19.036;2022-08-27T15:51:02;29.90;40.80
35325;DHT22;35135;47.510;19.036;2022-08-27T15:53:29;29.90;40.50
35325;DHT22;35135;47.510;19.036;2022-08-27T15:55:55;29.90;40.70
35325;DHT22;35135;47.510;19.036;2022-08-27T15:58:21;29.90;41.10
35325;DHT22;35135;47.510;19.036;2022-08-27T16:00:47;29.90;41.30
35325;DHT22;35135;47.510;19.036;2022-08-27T16:03:13;29.90;42.20
35325;DHT22;35135;47.510;19.036;2022-08-27T16:05:42;29.90;41.70
35325;DHT22;35135;47.510;19.036;2022-08-27T16:08:09;29.90;41.80
35325;DHT22;35135;47.510;19.036;2022-08-27T16:10:35;29.80;41.90
35325;DHT22;35135;47.510;19.036;2022-08-27T16:13:01;29.80;41.80
35325;DHT22;35135;47.510;19.036;2022-08-27T16:15:32;29.80;41.90
35325;DHT22;35135;47.510;19.036;2022-08-27T16:17:59;29.80;42.10
35325;DHT22;35135;47.510;19.036;2022-08-27T16:20:26;29.80;42.10
35325;DHT22;35135;47.510;19.036;2022-08-27T16:22:54;29.80;42.10
35325;DHT22;35135;47.510;19.036;2022-08-27T16:25:21;29.80;42.10
35325;DHT22;35135;47.510;19.036;2022-08-27T16:27:48;29.80;42.10
35325;DHT22;35135;47.510;19.036;2022-08-27T16:30:15;29.80;42.20
35325;DHT22;35135;47.510;19.036;2022-08-27T16:32:47;29.80;42.30
35325;DHT22;35135;47.510;19.036;2022-08-27T16:35:13;29.80;42.30